Disclaimer

Please do not use the information listed here in-flight or in-navigation, as they are not provided to us by the airports but are provided by volunteers, so they might be outdated.

Search


Regions


Airport information page

No radio frequency information is available.

Airport informations:
Latitude: 44° 24' 28.33" N
Longitude: 002° 28' 57.62" E
Elevation: 1910 feet - 582 meters
Operating hours: Remarks
Operating agency: Civil government, landing fees and diplomatic clearance may be required
Timezone: UTC+1(+2DT) - Last Sunday in March to last Sunday in October
Fuel: Jet A1, without icing nhibitor.

100/130 MIL Spec, low lead, aviation gasoline (BLUE)

Runway information:
13/31 - 6693 x 148 feet< - >2040 x 45 meters

Recent METARs:
LFCR 171930Z AUTO 12018KT 9999 FEW033 BKN056 BKN070 07/03 Q1016 NOSIG
LFCR 172000Z AUTO 12016KT 9999 FEW026 OVC062 07/02 Q1016 NOSIG
LFCR 172030Z AUTO 10013KT 9999 FEW027 OVC066 06/02 Q1017 NOSIG

Airport on the map: